Terminal Aerodrome Forecast
Issued by NWS

Home | Current Version | Previous Version | Text Only | Print | Product List | Glossary Off
Versions: 1 2 3 4 5 6 7 8 9 10 11 12 13

796
FTUS43 KBIS 181120
TAFDIK
TAF
KDIK 181120Z 1812/1912 20006KT P6SM SCT110
     FM182000 32008KT P6SM FEW100 FEW200
     FM190100 VRB03KT P6SM SKC
     FM190600 16008KT P6SM SKC=

USA.gov is the U.S. government's official web portal to all federal, state and local government web resources and services.